Terminal Aerodrome Forecast
Issued by NWS

Home | Current Version | Previous Version | Graphics & Text | Print | Product List | Glossary On
Versions: 1 2 3 4 5 6 7 8 9 10 11 12 13 14
455
FTUS43 KICT 160445 AAA
TAFSLN
TAF AMD
KSLN 160445Z 1605/1624 36022G30KT P6SM SCT020 BKN090
      TEMPO 1605/1608 6SM -RASN BKN020
     FM161300 35014G22KT P6SM SCT200
     FM161600 36008KT P6SM FEW250
     FM161900 06004KT P6SM FEW250
     FM162000 12004KT P6SM FEW250=

USA.gov is the U.S. government's official web portal to all federal, state and local government web resources and services.